USRR 160930Z 05006MPS 010V090 CAVOK 24/12 Q1014 R07/CLRD60 NOSIG RMK QFE756
QNH:(hPa/inHg/mmHg)1014 / 29.94 / 761
QFE:(hPa/inHg/mmHg)1007 / 29.73 / 755
Temperature24
Dew Point12
Visibility> 10000
WeatherCAVOK
Cloud Cover
Transition Height700 m./2500 ft.
Transition LevelFL40
SQUAWK